sensor_id;sensor_type;location;lat;lon;timestamp;P1;durP1;ratioP1;P2;durP2;ratioP2
12986;SDS011;58897;51.960;5.582;2023-05-08T00:01:18;9.53;;;8.47;;
12986;SDS011;58897;51.960;5.582;2023-05-08T00:03:44;10.10;;;9.10;;
12986;SDS011;58897;51.960;5.582;2023-05-08T00:06:11;10.73;;;9.20;;
12986;SDS011;58897;51.960;5.582;2023-05-08T00:08:38;10.83;;;8.37;;
12986;SDS011;58897;51.960;5.582;2023-05-08T00:11:04;9.90;;;8.87;;
12986;SDS011;58897;51.960;5.582;2023-05-08T00:13:31;8.97;;;8.07;;
12986;SDS011;58897;51.960;5.582;2023-05-08T00:15:57;10.73;;;9.17;;
12986;SDS011;58897;51.960;5.582;2023-05-08T00:18:24;11.87;;;9.13;;
12986;SDS011;58897;51.960;5.582;2023-05-08T00:20:50;16.60;;;8.77;;
12986;SDS011;58897;51.960;5.582;2023-05-08T00:23:17;11.60;;;9.07;;
12986;SDS011;58897;51.960;5.582;2023-05-08T00:25:43;9.57;;;8.53;;
12986;SDS011;58897;51.960;5.582;2023-05-08T00:28:10;10.53;;;9.33;;
12986;SDS011;58897;51.960;5.582;2023-05-08T00:30:36;11.93;;;9.67;;
12986;SDS011;58897;51.960;5.582;2023-05-08T00:33:02;10.67;;;9.00;;
12986;SDS011;58897;51.960;5.582;2023-05-08T00:35:29;11.40;;;9.13;;
12986;SDS011;58897;51.960;5.582;2023-05-08T00:37:56;12.50;;;9.47;;
12986;SDS011;58897;51.960;5.582;2023-05-08T00:40:22;16.67;;;8.93;;
12986;SDS011;58897;51.960;5.582;2023-05-08T00:42:49;10.50;;;8.83;;
12986;SDS011;58897;51.960;5.582;2023-05-08T00:45:15;12.00;;;9.70;;
12986;SDS011;58897;51.960;5.582;2023-05-08T00:47:42;12.10;;;9.17;;
12986;SDS011;58897;51.960;5.582;2023-05-08T00:50:09;11.33;;;9.27;;
12986;SDS011;58897;51.960;5.582;2023-05-08T00:52:36;12.53;;;9.60;;
12986;SDS011;58897;51.960;5.582;2023-05-08T00:55:03;12.57;;;9.27;;
12986;SDS011;58897;51.960;5.582;2023-05-08T00:57:31;10.70;;;9.20;;
12986;SDS011;58897;51.960;5.582;2023-05-08T01:00:01;12.97;;;8.93;;
12986;SDS011;58897;51.960;5.582;2023-05-08T01:02:29;9.30;;;8.40;;
12986;SDS011;58897;51.960;5.582;2023-05-08T01:04:57;12.67;;;9.37;;
12986;SDS011;58897;51.960;5.582;2023-05-08T01:07:24;10.27;;;9.23;;
12986;SDS011;58897;51.960;5.582;2023-05-08T01:09:51;9.60;;;8.47;;
12986;SDS011;58897;51.960;5.582;2023-05-08T01:15:16;10.00;;;8.43;;
12986;SDS011;58897;51.960;5.582;2023-05-08T01:20:40;10.10;;;8.50;;
12986;SDS011;58897;51.960;5.582;2023-05-08T01:25:48;11.03;;;9.13;;
12986;SDS011;58897;51.960;5.582;2023-05-08T01:34:06;10.93;;;9.13;;
12986;SDS011;58897;51.960;5.582;2023-05-08T01:36:42;10.23;;;8.90;;
12986;SDS011;58897;51.960;5.582;2023-05-08T01:45:11;9.97;;;8.67;;
12986;SDS011;58897;51.960;5.582;2023-05-08T01:47:47;9.90;;;8.80;;
12986;SDS011;58897;51.960;5.582;2023-05-08T01:50:20;11.10;;;9.10;;
12986;SDS011;58897;51.960;5.582;2023-05-08T01:52:52;11.03;;;8.77;;
12986;SDS011;58897;51.960;5.582;2023-05-08T01:55:25;9.70;;;8.70;;
12986;SDS011;58897;51.960;5.582;2023-05-08T01:57:56;12.00;;;9.10;;
12986;SDS011;58897;51.960;5.582;2023-05-08T02:00:24;10.63;;;9.47;;
12986;SDS011;58897;51.960;5.582;2023-05-08T02:02:53;11.17;;;9.43;;
12986;SDS011;58897;51.960;5.582;2023-05-08T02:05:21;11.80;;;9.30;;
12986;SDS011;58897;51.960;5.582;2023-05-08T02:07:49;12.70;;;9.47;;
12986;SDS011;58897;51.960;5.582;2023-05-08T02:10:18;10.47;;;8.77;;
12986;SDS011;58897;51.960;5.582;2023-05-08T02:12:47;11.30;;;9.93;;
12986;SDS011;58897;51.960;5.582;2023-05-08T02:15:15;13.47;;;9.50;;
12986;SDS011;58897;51.960;5.582;2023-05-08T02:17:42;11.33;;;9.63;;
12986;SDS011;58897;51.960;5.582;2023-05-08T02:20:13;12.83;;;9.73;;
12986;SDS011;58897;51.960;5.582;2023-05-08T02:22:42;14.80;;;10.47;;
12986;SDS011;58897;51.960;5.582;2023-05-08T02:25:11;15.30;;;11.20;;
12986;SDS011;58897;51.960;5.582;2023-05-08T02:27:40;12.43;;;10.47;;
12986;SDS011;58897;51.960;5.582;2023-05-08T02:30:11;15.00;;;10.13;;
12986;SDS011;58897;51.960;5.582;2023-05-08T02:32:43;13.70;;;10.80;;
12986;SDS011;58897;51.960;5.582;2023-05-08T02:35:11;13.97;;;10.67;;
12986;SDS011;58897;51.960;5.582;2023-05-08T02:37:41;13.93;;;10.67;;
12986;SDS011;58897;51.960;5.582;2023-05-08T02:40:09;14.47;;;10.83;;
12986;SDS011;58897;51.960;5.582;2023-05-08T02:42:38;17.53;;;11.03;;
12986;SDS011;58897;51.960;5.582;2023-05-08T02:45:05;16.53;;;10.60;;
12986;SDS011;58897;51.960;5.582;2023-05-08T02:47:46;14.23;;;10.27;;
12986;SDS011;58897;51.960;5.582;2023-05-08T02:50:18;16.57;;;10.10;;
12986;SDS011;58897;51.960;5.582;2023-05-08T02:52:50;12.97;;;10.23;;
12986;SDS011;58897;51.960;5.582;2023-05-08T02:57:47;14.07;;;9.43;;
12986;SDS011;58897;51.960;5.582;2023-05-08T03:00:31;11.03;;;9.13;;
12986;SDS011;58897;51.960;5.582;2023-05-08T03:03:06;10.13;;;8.53;;
12986;SDS011;58897;51.960;5.582;2023-05-08T03:05:37;11.70;;;8.13;;
12986;SDS011;58897;51.960;5.582;2023-05-08T03:08:13;10.50;;;9.00;;
12986;SDS011;58897;51.960;5.582;2023-05-08T03:10:44;9.30;;;8.40;;
12986;SDS011;58897;51.960;5.582;2023-05-08T03:13:14;9.87;;;8.50;;
12986;SDS011;58897;51.960;5.582;2023-05-08T03:15:47;11.07;;;8.43;;
12986;SDS011;58897;51.960;5.582;2023-05-08T03:18:20;10.33;;;7.70;;
12986;SDS011;58897;51.960;5.582;2023-05-08T03:20:50;9.77;;;7.60;;
12986;SDS011;58897;51.960;5.582;2023-05-08T03:23:19;9.50;;;8.50;;
12986;SDS011;58897;51.960;5.582;2023-05-08T03:25:48;9.10;;;7.60;;
12986;SDS011;58897;51.960;5.582;2023-05-08T03:28:16;8.80;;;7.90;;
12986;SDS011;58897;51.960;5.582;2023-05-08T03:30:43;9.63;;;8.40;;
12986;SDS011;58897;51.960;5.582;2023-05-08T03:33:11;8.87;;;7.93;;
12986;SDS011;58897;51.960;5.582;2023-05-08T03:35:38;9.40;;;8.30;;
12986;SDS011;58897;51.960;5.582;2023-05-08T03:38:05;9.93;;;8.83;;
12986;SDS011;58897;51.960;5.582;2023-05-08T03:40:33;10.13;;;8.63;;
12986;SDS011;58897;51.960;5.582;2023-05-08T03:43:07;9.43;;;8.43;;
12986;SDS011;58897;51.960;5.582;2023-05-08T03:45:35;13.00;;;7.90;;
12986;SDS011;58897;51.960;5.582;2023-05-08T03:48:03;10.90;;;9.03;;
12986;SDS011;58897;51.960;5.582;2023-05-08T03:50:31;9.17;;;7.67;;
12986;SDS011;58897;51.960;5.582;2023-05-08T03:52:59;10.80;;;8.63;;
12986;SDS011;58897;51.960;5.582;2023-05-08T03:55:26;13.37;;;8.50;;
12986;SDS011;58897;51.960;5.582;2023-05-08T03:57:55;9.70;;;7.73;;
12986;SDS011;58897;51.960;5.582;2023-05-08T04:00:28;10.93;;;8.70;;
12986;SDS011;58897;51.960;5.582;2023-05-08T04:03:17;8.93;;;7.80;;
12986;SDS011;58897;51.960;5.582;2023-05-08T04:05:57;9.80;;;8.23;;
12986;SDS011;58897;51.960;5.582;2023-05-08T04:08:28;12.43;;;8.03;;
12986;SDS011;58897;51.960;5.582;2023-05-08T04:11:08;9.87;;;8.10;;
12986;SDS011;58897;51.960;5.582;2023-05-08T04:13:44;8.67;;;7.70;;
12986;SDS011;58897;51.960;5.582;2023-05-08T04:16:16;9.87;;;7.73;;
12986;SDS011;58897;51.960;5.582;2023-05-08T04:18:46;11.43;;;8.53;;
12986;SDS011;58897;51.960;5.582;2023-05-08T04:21:17;10.33;;;8.13;;
12986;SDS011;58897;51.960;5.582;2023-05-08T04:23:45;8.43;;;7.53;;
12986;SDS011;58897;51.960;5.582;2023-05-08T04:26:15;9.80;;;8.23;;
12986;SDS011;58897;51.960;5.582;2023-05-08T04:28:43;8.70;;;7.80;;
12986;SDS011;58897;51.960;5.582;2023-05-08T04:31:13;9.23;;;8.23;;
12986;SDS011;58897;51.960;5.582;2023-05-08T04:33:44;10.40;;;8.30;;
12986;SDS011;58897;51.960;5.582;2023-05-08T04:36:12;10.90;;;8.33;;
12986;SDS011;58897;51.960;5.582;2023-05-08T04:38:39;10.17;;;7.67;;
12986;SDS011;58897;51.960;5.582;2023-05-08T04:41:06;9.13;;;7.67;;
12986;SDS011;58897;51.960;5.582;2023-05-08T04:43:33;10.93;;;8.33;;
12986;SDS011;58897;51.960;5.582;2023-05-08T04:46:00;10.67;;;8.50;;
12986;SDS011;58897;51.960;5.582;2023-05-08T04:48:29;10.90;;;8.37;;
12986;SDS011;58897;51.960;5.582;2023-05-08T04:50:58;12.37;;;9.77;;
12986;SDS011;58897;51.960;5.582;2023-05-08T04:53:25;11.93;;;9.80;;
12986;SDS011;58897;51.960;5.582;2023-05-08T04:55:52;10.50;;;8.37;;
12986;SDS011;58897;51.960;5.582;2023-05-08T04:58:18;10.83;;;8.63;;
12986;SDS011;58897;51.960;5.582;2023-05-08T05:00:45;11.10;;;9.00;;
12986;SDS011;58897;51.960;5.582;2023-05-08T05:03:11;15.17;;;11.10;;
12986;SDS011;58897;51.960;5.582;2023-05-08T05:05:38;13.83;;;9.97;;
12986;SDS011;58897;51.960;5.582;2023-05-08T05:08:04;11.40;;;9.77;;
12986;SDS011;58897;51.960;5.582;2023-05-08T05:10:31;15.30;;;11.30;;
12986;SDS011;58897;51.960;5.582;2023-05-08T05:12:57;16.30;;;11.73;;
12986;SDS011;58897;51.960;5.582;2023-05-08T05:15:24;16.93;;;12.00;;
12986;SDS011;58897;51.960;5.582;2023-05-08T05:17:50;18.60;;;12.70;;
12986;SDS011;58897;51.960;5.582;2023-05-08T05:20:17;20.23;;;12.73;;
12986;SDS011;58897;51.960;5.582;2023-05-08T05:22:43;16.23;;;13.03;;
12986;SDS011;58897;51.960;5.582;2023-05-08T05:25:10;19.73;;;15.03;;
12986;SDS011;58897;51.960;5.582;2023-05-08T05:27:37;17.07;;;13.67;;
12986;SDS011;58897;51.960;5.582;2023-05-08T05:30:04;22.10;;;14.90;;
12986;SDS011;58897;51.960;5.582;2023-05-08T05:32:32;18.67;;;14.20;;
12986;SDS011;58897;51.960;5.582;2023-05-08T05:34:58;18.87;;;14.33;;
12986;SDS011;58897;51.960;5.582;2023-05-08T05:37:25;19.73;;;13.57;;
12986;SDS011;58897;51.960;5.582;2023-05-08T05:39:52;19.50;;;14.47;;
12986;SDS011;58897;51.960;5.582;2023-05-08T05:42:18;20.47;;;14.23;;
12986;SDS011;58897;51.960;5.582;2023-05-08T05:44:45;17.97;;;13.53;;
12986;SDS011;58897;51.960;5.582;2023-05-08T05:47:11;17.83;;;13.77;;
12986;SDS011;58897;51.960;5.582;2023-05-08T05:49:38;19.03;;;14.70;;
12986;SDS011;58897;51.960;5.582;2023-05-08T05:52:08;20.23;;;14.53;;
12986;SDS011;58897;51.960;5.582;2023-05-08T05:54:34;20.13;;;14.97;;
12986;SDS011;58897;51.960;5.582;2023-05-08T05:57:01;19.83;;;14.93;;
12986;SDS011;58897;51.960;5.582;2023-05-08T05:59:27;19.57;;;14.80;;
12986;SDS011;58897;51.960;5.582;2023-05-08T06:01:54;22.13;;;15.47;;
12986;SDS011;58897;51.960;5.582;2023-05-08T06:04:20;24.77;;;15.57;;
12986;SDS011;58897;51.960;5.582;2023-05-08T06:06:47;19.77;;;14.87;;
12986;SDS011;58897;51.960;5.582;2023-05-08T06:09:13;20.17;;;15.03;;
12986;SDS011;58897;51.960;5.582;2023-05-08T06:11:41;21.20;;;14.50;;
12986;SDS011;58897;51.960;5.582;2023-05-08T06:14:07;17.67;;;14.87;;
12986;SDS011;58897;51.960;5.582;2023-05-08T06:16:34;18.87;;;14.60;;
12986;SDS011;58897;51.960;5.582;2023-05-08T06:19:00;20.97;;;15.53;;
12986;SDS011;58897;51.960;5.582;2023-05-08T06:21:27;21.80;;;14.47;;
12986;SDS011;58897;51.960;5.582;2023-05-08T06:23:54;21.30;;;15.40;;
12986;SDS011;58897;51.960;5.582;2023-05-08T06:26:20;20.20;;;15.30;;
12986;SDS011;58897;51.960;5.582;2023-05-08T06:28:48;20.13;;;15.07;;
12986;SDS011;58897;51.960;5.582;2023-05-08T06:31:15;18.87;;;15.30;;
12986;SDS011;58897;51.960;5.582;2023-05-08T06:33:41;21.30;;;15.33;;
12986;SDS011;58897;51.960;5.582;2023-05-08T06:36:08;21.63;;;15.80;;
12986;SDS011;58897;51.960;5.582;2023-05-08T06:38:34;22.40;;;15.50;;
12986;SDS011;58897;51.960;5.582;2023-05-08T06:41:01;20.57;;;15.47;;
12986;SDS011;58897;51.960;5.582;2023-05-08T06:43:27;21.10;;;16.17;;
12986;SDS011;58897;51.960;5.582;2023-05-08T06:45:55;21.33;;;16.37;;
12986;SDS011;58897;51.960;5.582;2023-05-08T06:48:22;23.07;;;16.60;;
12986;SDS011;58897;51.960;5.582;2023-05-08T06:50:49;23.33;;;15.93;;
12986;SDS011;58897;51.960;5.582;2023-05-08T06:53:16;21.13;;;16.03;;
12986;SDS011;58897;51.960;5.582;2023-05-08T06:55:43;21.30;;;15.73;;
12986;SDS011;58897;51.960;5.582;2023-05-08T06:58:09;21.93;;;16.47;;
12986;SDS011;58897;51.960;5.582;2023-05-08T07:00:36;22.23;;;16.80;;
12986;SDS011;58897;51.960;5.582;2023-05-08T07:03:03;20.23;;;15.47;;
12986;SDS011;58897;51.960;5.582;2023-05-08T07:05:29;21.53;;;17.17;;
12986;SDS011;58897;51.960;5.582;2023-05-08T07:07:56;21.07;;;16.23;;
12986;SDS011;58897;51.960;5.582;2023-05-08T07:10:22;23.23;;;17.27;;
12986;SDS011;58897;51.960;5.582;2023-05-08T07:12:50;24.10;;;16.93;;
12986;SDS011;58897;51.960;5.582;2023-05-08T07:15:17;23.77;;;17.70;;
12986;SDS011;58897;51.960;5.582;2023-05-08T07:17:49;22.83;;;17.60;;
12986;SDS011;58897;51.960;5.582;2023-05-08T07:20:16;24.10;;;17.07;;
12986;SDS011;58897;51.960;5.582;2023-05-08T07:22:42;23.33;;;17.27;;
12986;SDS011;58897;51.960;5.582;2023-05-08T07:25:09;22.23;;;16.90;;
12986;SDS011;58897;51.960;5.582;2023-05-08T07:27:36;19.97;;;15.93;;
12986;SDS011;58897;51.960;5.582;2023-05-08T07:30:02;20.87;;;15.67;;
12986;SDS011;58897;51.960;5.582;2023-05-08T07:32:29;21.60;;;17.30;;
12986;SDS011;58897;51.960;5.582;2023-05-08T07:34:58;21.57;;;17.63;;
12986;SDS011;58897;51.960;5.582;2023-05-08T07:37:25;24.10;;;17.40;;
12986;SDS011;58897;51.960;5.582;2023-05-08T07:39:52;24.13;;;17.83;;
12986;SDS011;58897;51.960;5.582;2023-05-08T07:42:18;21.80;;;16.77;;
12986;SDS011;58897;51.960;5.582;2023-05-08T07:44:46;27.87;;;18.33;;
12986;SDS011;58897;51.960;5.582;2023-05-08T07:47:20;23.93;;;17.80;;
12986;SDS011;58897;51.960;5.582;2023-05-08T07:49:46;22.27;;;16.10;;
12986;SDS011;58897;51.960;5.582;2023-05-08T07:52:13;23.17;;;17.47;;
12986;SDS011;58897;51.960;5.582;2023-05-08T07:54:39;26.90;;;18.37;;
12986;SDS011;58897;51.960;5.582;2023-05-08T07:57:06;24.63;;;18.47;;
12986;SDS011;58897;51.960;5.582;2023-05-08T07:59:32;22.37;;;17.43;;
12986;SDS011;58897;51.960;5.582;2023-05-08T08:01:59;23.27;;;17.97;;
12986;SDS011;58897;51.960;5.582;2023-05-08T08:04:25;27.93;;;18.70;;
12986;SDS011;58897;51.960;5.582;2023-05-08T08:06:53;26.73;;;18.93;;
12986;SDS011;58897;51.960;5.582;2023-05-08T08:09:20;26.37;;;19.17;;
12986;SDS011;58897;51.960;5.582;2023-05-08T08:11:46;25.50;;;18.13;;
12986;SDS011;58897;51.960;5.582;2023-05-08T08:14:13;26.13;;;19.63;;
12986;SDS011;58897;51.960;5.582;2023-05-08T08:16:39;25.83;;;19.63;;
12986;SDS011;58897;51.960;5.582;2023-05-08T08:19:07;25.87;;;19.50;;
12986;SDS011;58897;51.960;5.582;2023-05-08T08:21:34;25.33;;;18.37;;
12986;SDS011;58897;51.960;5.582;2023-05-08T08:24:00;23.83;;;18.10;;
12986;SDS011;58897;51.960;5.582;2023-05-08T08:26:27;26.70;;;18.67;;
12986;SDS011;58897;51.960;5.582;2023-05-08T08:28:53;24.90;;;18.47;;
12986;SDS011;58897;51.960;5.582;2023-05-08T08:31:20;23.97;;;18.27;;
12986;SDS011;58897;51.960;5.582;2023-05-08T08:33:46;27.63;;;19.67;;
12986;SDS011;58897;51.960;5.582;2023-05-08T08:36:13;25.03;;;18.50;;
12986;SDS011;58897;51.960;5.582;2023-05-08T08:38:40;24.60;;;19.13;;
12986;SDS011;58897;51.960;5.582;2023-05-08T08:41:07;25.47;;;19.00;;
12986;SDS011;58897;51.960;5.582;2023-05-08T08:43:34;25.10;;;18.43;;
12986;SDS011;58897;51.960;5.582;2023-05-08T08:46:01;24.17;;;18.93;;
12986;SDS011;58897;51.960;5.582;2023-05-08T08:48:35;24.77;;;18.87;;
12986;SDS011;58897;51.960;5.582;2023-05-08T08:51:04;28.00;;;19.63;;
12986;SDS011;58897;51.960;5.582;2023-05-08T08:53:41;26.60;;;19.37;;
12986;SDS011;58897;51.960;5.582;2023-05-08T08:56:09;25.13;;;20.17;;
12986;SDS011;58897;51.960;5.582;2023-05-08T08:58:39;27.63;;;20.13;;
12986;SDS011;58897;51.960;5.582;2023-05-08T09:01:14;29.13;;;20.20;;
12986;SDS011;58897;51.960;5.582;2023-05-08T09:03:43;28.90;;;20.67;;
12986;SDS011;58897;51.960;5.582;2023-05-08T09:06:11;27.67;;;20.47;;
12986;SDS011;58897;51.960;5.582;2023-05-08T09:08:39;28.93;;;21.50;;
12986;SDS011;58897;51.960;5.582;2023-05-08T09:11:06;28.37;;;22.00;;
12986;SDS011;58897;51.960;5.582;2023-05-08T09:13:32;26.67;;;20.77;;
12986;SDS011;58897;51.960;5.582;2023-05-08T09:15:59;25.30;;;19.67;;
12986;SDS011;58897;51.960;5.582;2023-05-08T09:18:26;27.73;;;21.53;;
12986;SDS011;58897;51.960;5.582;2023-05-08T09:20:52;26.40;;;20.13;;
12986;SDS011;58897;51.960;5.582;2023-05-08T09:23:19;25.23;;;20.30;;
12986;SDS011;58897;51.960;5.582;2023-05-08T09:25:46;23.23;;;18.67;;
12986;SDS011;58897;51.960;5.582;2023-05-08T09:28:21;25.63;;;19.93;;
12986;SDS011;58897;51.960;5.582;2023-05-08T09:33:19;22.83;;;18.80;;
12986;SDS011;58897;51.960;5.582;2023-05-08T09:35:46;22.70;;;19.33;;
12986;SDS011;58897;51.960;5.582;2023-05-08T09:43:40;23.33;;;18.90;;
12986;SDS011;58897;51.960;5.582;2023-05-08T09:46:23;22.23;;;18.33;;
12986;SDS011;58897;51.960;5.582;2023-05-08T09:48:53;23.10;;;19.83;;
12986;SDS011;58897;51.960;5.582;2023-05-08T09:51:21;24.40;;;19.97;;
12986;SDS011;58897;51.960;5.582;2023-05-08T09:53:52;25.53;;;20.03;;
12986;SDS011;58897;51.960;5.582;2023-05-08T09:59:03;22.47;;;17.07;;
12986;SDS011;58897;51.960;5.582;2023-05-08T10:01:32;22.40;;;18.10;;
12986;SDS011;58897;51.960;5.582;2023-05-08T10:04:00;20.70;;;17.60;;
12986;SDS011;58897;51.960;5.582;2023-05-08T10:06:28;22.10;;;18.43;;
12986;SDS011;58897;51.960;5.582;2023-05-08T10:12:01;23.27;;;18.50;;
12986;SDS011;58897;51.960;5.582;2023-05-08T10:14:28;18.77;;;16.70;;
12986;SDS011;58897;51.960;5.582;2023-05-08T10:16:55;20.87;;;17.27;;
12986;SDS011;58897;51.960;5.582;2023-05-08T10:19:26;19.23;;;17.10;;
12986;SDS011;58897;51.960;5.582;2023-05-08T10:21:54;22.70;;;17.83;;
12986;SDS011;58897;51.960;5.582;2023-05-08T10:24:31;20.10;;;17.37;;
12986;SDS011;58897;51.960;5.582;2023-05-08T10:29:52;25.17;;;19.37;;
12986;SDS011;58897;51.960;5.582;2023-05-08T10:32:20;24.30;;;19.87;;
12986;SDS011;58897;51.960;5.582;2023-05-08T10:34:51;25.47;;;19.20;;
12986;SDS011;58897;51.960;5.582;2023-05-08T10:37:21;26.57;;;20.10;;
12986;SDS011;58897;51.960;5.582;2023-05-08T10:39:47;26.40;;;20.57;;
12986;SDS011;58897;51.960;5.582;2023-05-08T10:42:14;26.13;;;20.43;;
12986;SDS011;58897;51.960;5.582;2023-05-08T10:44:41;28.80;;;21.57;;
12986;SDS011;58897;51.960;5.582;2023-05-08T10:47:20;27.23;;;20.90;;
12986;SDS011;58897;51.960;5.582;2023-05-08T10:55:52;30.53;;;21.80;;
12986;SDS011;58897;51.960;5.582;2023-05-08T10:58:33;30.10;;;22.73;;
12986;SDS011;58897;51.960;5.582;2023-05-08T11:03:39;27.37;;;20.60;;
12986;SDS011;58897;51.960;5.582;2023-05-08T11:06:13;28.27;;;21.93;;
12986;SDS011;58897;51.960;5.582;2023-05-08T11:08:50;30.50;;;20.63;;
12986;SDS011;58897;51.960;5.582;2023-05-08T11:11:23;26.40;;;21.23;;
12986;SDS011;58897;51.960;5.582;2023-05-08T11:14:08;26.33;;;19.60;;
12986;SDS011;58897;51.960;5.582;2023-05-08T11:19:19;24.07;;;19.30;;
12986;SDS011;58897;51.960;5.582;2023-05-08T11:24:52;22.87;;;18.17;;
12986;SDS011;58897;51.960;5.582;2023-05-08T11:27:39;27.67;;;20.13;;
12986;SDS011;58897;51.960;5.582;2023-05-08T11:35:39;28.07;;;21.00;;
12986;SDS011;58897;51.960;5.582;2023-05-08T11:38:30;33.73;;;22.60;;
12986;SDS011;58897;51.960;5.582;2023-05-08T11:41:20;32.63;;;21.87;;
12986;SDS011;58897;51.960;5.582;2023-05-08T11:46:40;36.07;;;24.83;;
12986;SDS011;58897;51.960;5.582;2023-05-08T11:49:11;35.50;;;24.00;;
12986;SDS011;58897;51.960;5.582;2023-05-08T11:51:39;32.97;;;24.07;;
12986;SDS011;58897;51.960;5.582;2023-05-08T11:54:11;31.40;;;23.63;;
12986;SDS011;58897;51.960;5.582;2023-05-08T11:56:39;30.57;;;22.70;;
12986;SDS011;58897;51.960;5.582;2023-05-08T11:59:06;29.43;;;22.53;;
12986;SDS011;58897;51.960;5.582;2023-05-08T12:01:34;28.90;;;22.47;;
12986;SDS011;58897;51.960;5.582;2023-05-08T12:04:08;27.10;;;21.00;;
12986;SDS011;58897;51.960;5.582;2023-05-08T12:06:38;28.83;;;21.13;;
12986;SDS011;58897;51.960;5.582;2023-05-08T12:09:09;27.43;;;20.90;;
12986;SDS011;58897;51.960;5.582;2023-05-08T12:11:38;26.27;;;19.70;;
12986;SDS011;58897;51.960;5.582;2023-05-08T12:14:09;30.30;;;21.43;;
12986;SDS011;58897;51.960;5.582;2023-05-08T12:16:36;27.50;;;20.90;;
12986;SDS011;58897;51.960;5.582;2023-05-08T12:19:11;26.83;;;20.23;;
12986;SDS011;58897;51.960;5.582;2023-05-08T12:21:38;27.00;;;20.87;;
12986;SDS011;58897;51.960;5.582;2023-05-08T12:24:12;27.10;;;21.57;;
12986;SDS011;58897;51.960;5.582;2023-05-08T12:26:41;28.77;;;20.40;;
12986;SDS011;58897;51.960;5.582;2023-05-08T12:29:08;29.70;;;21.33;;
12986;SDS011;58897;51.960;5.582;2023-05-08T12:31:34;28.97;;;20.43;;
12986;SDS011;58897;51.960;5.582;2023-05-08T12:34:02;33.67;;;23.47;;
12986;SDS011;58897;51.960;5.582;2023-05-08T12:36:36;32.03;;;23.57;;
12986;SDS011;58897;51.960;5.582;2023-05-08T12:39:13;34.03;;;22.87;;
12986;SDS011;58897;51.960;5.582;2023-05-08T12:41:48;32.23;;;24.07;;
12986;SDS011;58897;51.960;5.582;2023-05-08T12:44:24;33.20;;;23.17;;
12986;SDS011;58897;51.960;5.582;2023-05-08T12:46:52;33.57;;;24.17;;
12986;SDS011;58897;51.960;5.582;2023-05-08T12:49:27;30.43;;;21.83;;
12986;SDS011;58897;51.960;5.582;2023-05-08T12:52:02;34.03;;;23.43;;
12986;SDS011;58897;51.960;5.582;2023-05-08T12:54:36;30.07;;;21.93;;
12986;SDS011;58897;51.960;5.582;2023-05-08T12:57:07;31.00;;;21.53;;
12986;SDS011;58897;51.960;5.582;2023-05-08T12:59:44;31.07;;;22.17;;
12986;SDS011;58897;51.960;5.582;2023-05-08T13:02:15;30.70;;;22.00;;
12986;SDS011;58897;51.960;5.582;2023-05-08T13:04:43;31.17;;;23.00;;
12986;SDS011;58897;51.960;5.582;2023-05-08T13:07:10;27.47;;;19.80;;
12986;SDS011;58897;51.960;5.582;2023-05-08T13:09:37;24.43;;;19.03;;
12986;SDS011;58897;51.960;5.582;2023-05-08T13:12:04;23.73;;;17.80;;
12986;SDS011;58897;51.960;5.582;2023-05-08T13:14:33;25.00;;;18.13;;
12986;SDS011;58897;51.960;5.582;2023-05-08T13:17:00;21.93;;;17.30;;
12986;SDS011;58897;51.960;5.582;2023-05-08T13:19:27;22.37;;;16.23;;
12986;SDS011;58897;51.960;5.582;2023-05-08T13:21:53;19.87;;;16.13;;
12986;SDS011;58897;51.960;5.582;2023-05-08T13:24:20;20.13;;;14.57;;
12986;SDS011;58897;51.960;5.582;2023-05-08T13:26:46;20.20;;;14.90;;
12986;SDS011;58897;51.960;5.582;2023-05-08T13:29:13;19.50;;;15.33;;
12986;SDS011;58897;51.960;5.582;2023-05-08T13:31:39;23.53;;;17.40;;
12986;SDS011;58897;51.960;5.582;2023-05-08T13:34:06;17.83;;;13.77;;
12986;SDS011;58897;51.960;5.582;2023-05-08T13:36:33;16.67;;;13.10;;
12986;SDS011;58897;51.960;5.582;2023-05-08T13:38:59;17.70;;;12.40;;
12986;SDS011;58897;51.960;5.582;2023-05-08T13:41:25;15.83;;;12.57;;
12986;SDS011;58897;51.960;5.582;2023-05-08T13:43:52;14.97;;;9.33;;
12986;SDS011;58897;51.960;5.582;2023-05-08T13:46:18;13.37;;;10.77;;
12986;SDS011;58897;51.960;5.582;2023-05-08T13:48:45;14.37;;;10.77;;
12986;SDS011;58897;51.960;5.582;2023-05-08T13:51:11;16.47;;;11.67;;
12986;SDS011;58897;51.960;5.582;2023-05-08T13:53:38;16.50;;;11.73;;
12986;SDS011;58897;51.960;5.582;2023-05-08T13:56:04;14.67;;;11.17;;
12986;SDS011;58897;51.960;5.582;2023-05-08T13:58:31;15.07;;;12.17;;
12986;SDS011;58897;51.960;5.582;2023-05-08T14:00:58;16.07;;;12.70;;
12986;SDS011;58897;51.960;5.582;2023-05-08T14:03:32;18.40;;;14.00;;
12986;SDS011;58897;51.960;5.582;2023-05-08T14:05:59;17.77;;;13.57;;
12986;SDS011;58897;51.960;5.582;2023-05-08T14:08:25;17.63;;;13.83;;
12986;SDS011;58897;51.960;5.582;2023-05-08T14:10:52;18.83;;;14.37;;
12986;SDS011;58897;51.960;5.582;2023-05-08T14:13:19;18.70;;;14.17;;
12986;SDS011;58897;51.960;5.582;2023-05-08T14:15:45;19.13;;;14.37;;
12986;SDS011;58897;51.960;5.582;2023-05-08T14:18:12;19.83;;;15.43;;
12986;SDS011;58897;51.960;5.582;2023-05-08T14:20:39;24.40;;;16.67;;
12986;SDS011;58897;51.960;5.582;2023-05-08T14:23:05;21.80;;;16.23;;
12986;SDS011;58897;51.960;5.582;2023-05-08T14:25:32;22.40;;;17.30;;
12986;SDS011;58897;51.960;5.582;2023-05-08T14:27:58;21.27;;;15.97;;
12986;SDS011;58897;51.960;5.582;2023-05-08T14:30:25;25.20;;;16.93;;
12986;SDS011;58897;51.960;5.582;2023-05-08T14:32:51;24.63;;;17.70;;
12986;SDS011;58897;51.960;5.582;2023-05-08T14:35:18;22.30;;;16.13;;
12986;SDS011;58897;51.960;5.582;2023-05-08T14:37:45;22.83;;;16.50;;
12986;SDS011;58897;51.960;5.582;2023-05-08T14:40:11;25.03;;;17.73;;
12986;SDS011;58897;51.960;5.582;2023-05-08T14:42:38;27.37;;;18.37;;
12986;SDS011;58897;51.960;5.582;2023-05-08T14:45:04;22.47;;;17.73;;
12986;SDS011;58897;51.960;5.582;2023-05-08T14:47:31;24.07;;;17.40;;
12986;SDS011;58897;51.960;5.582;2023-05-08T14:49:59;23.70;;;17.27;;
12986;SDS011;58897;51.960;5.582;2023-05-08T14:52:25;25.10;;;20.33;;
12986;SDS011;58897;51.960;5.582;2023-05-08T14:54:52;26.07;;;18.20;;
12986;SDS011;58897;51.960;5.582;2023-05-08T14:57:19;23.87;;;17.83;;
12986;SDS011;58897;51.960;5.582;2023-05-08T14:59:46;27.13;;;19.43;;
12986;SDS011;58897;51.960;5.582;2023-05-08T15:02:20;26.43;;;19.30;;
12986;SDS011;58897;51.960;5.582;2023-05-08T15:04:48;27.03;;;19.20;;
12986;SDS011;58897;51.960;5.582;2023-05-08T15:07:14;24.47;;;18.30;;
12986;SDS011;58897;51.960;5.582;2023-05-08T15:09:41;26.07;;;18.80;;
12986;SDS011;58897;51.960;5.582;2023-05-08T15:12:07;25.90;;;18.97;;
12986;SDS011;58897;51.960;5.582;2023-05-08T15:14:34;27.33;;;19.80;;
12986;SDS011;58897;51.960;5.582;2023-05-08T15:17:01;28.70;;;19.67;;
12986;SDS011;58897;51.960;5.582;2023-05-08T15:19:27;27.57;;;20.90;;
12986;SDS011;58897;51.960;5.582;2023-05-08T15:21:54;30.63;;;19.83;;
12986;SDS011;58897;51.960;5.582;2023-05-08T15:24:20;29.53;;;21.93;;
12986;SDS011;58897;51.960;5.582;2023-05-08T15:26:47;30.83;;;21.77;;
12986;SDS011;58897;51.960;5.582;2023-05-08T15:29:13;28.63;;;20.23;;
12986;SDS011;58897;51.960;5.582;2023-05-08T15:31:39;34.53;;;21.70;;
12986;SDS011;58897;51.960;5.582;2023-05-08T15:34:06;28.23;;;20.53;;
12986;SDS011;58897;51.960;5.582;2023-05-08T15:36:32;31.40;;;21.27;;